createdAt,value
2022-10-11T00:01:58.189Z,4.00
2022-10-11T00:04:31.784Z,3.00
2022-10-11T00:07:00.127Z,4.97
2022-10-11T00:09:28.712Z,2.38
2022-10-11T00:12:00.166Z,2.85
2022-10-11T00:14:29.261Z,4.25
2022-10-11T00:17:00.623Z,3.70
2022-10-11T00:19:31.543Z,6.10
2022-10-11T00:22:00.178Z,6.10
2022-10-11T00:24:28.716Z,3.67
2022-10-11T00:27:02.409Z,4.25
2022-10-11T00:29:30.698Z,2.70
2022-10-11T00:34:29.478Z,4.85
2022-10-11T00:39:27.612Z,5.15
2022-10-11T00:41:58.171Z,6.78
2022-10-11T00:44:59.461Z,6.50
2022-10-11T00:55:00.167Z,6.68
2022-10-11T00:58:01.601Z,5.38
2022-10-11T01:00:32.505Z,6.68
2022-10-11T01:03:02.980Z,8.30
2022-10-11T01:08:56.561Z,5.85
2022-10-11T01:11:29.342Z,7.50
2022-10-11T01:14:56.087Z,8.88
2022-10-11T01:20:59.994Z,7.20
2022-10-11T01:24:08.333Z,7.72
2022-10-11T01:28:02.027Z,6.93
2022-10-11T01:30:59.068Z,8.25
2022-10-11T01:33:30.930Z,9.18
2022-10-11T01:35:59.250Z,7.47
2022-10-11T01:38:58.529Z,15.50
2022-10-11T01:41:54.500Z,9.82
2022-10-11T01:44:28.343Z,10.85
2022-10-11T01:46:56.502Z,8.50
2022-10-11T01:49:25.194Z,11.98
2022-10-11T01:52:00.337Z,9.80
2022-10-11T01:57:56.151Z,9.57
2022-10-11T02:00:53.686Z,9.15
2022-10-11T02:03:55.838Z,10.05
2022-10-11T02:07:05.081Z,9.45
2022-10-11T02:10:00.636Z,8.30
2022-10-11T02:13:00.577Z,8.93
2022-10-11T02:15:57.616Z,10.25
2022-10-11T02:18:52.960Z,10.63
2022-10-11T02:21:24.502Z,8.18
2022-10-11T02:24:02.742Z,10.02
2022-10-11T02:27:04.157Z,6.90
2022-10-11T02:35:24.213Z,8.35
2022-10-11T02:41:00.377Z,10.40
2022-10-11T02:43:58.437Z,9.57
2022-10-11T02:46:53.238Z,8.10
2022-10-11T02:49:24.561Z,10.20
2022-10-11T02:51:52.786Z,10.77
2022-10-11T02:54:20.962Z,10.70
2022-10-11T02:56:52.342Z,10.10
2022-10-11T02:59:23.706Z,9.73
2022-10-11T03:01:51.955Z,8.18
2022-10-11T03:04:23.487Z,8.48
2022-10-11T03:06:51.693Z,9.05
2022-10-11T03:09:23.061Z,12.30
2022-10-11T03:11:51.363Z,9.70
2022-10-11T03:14:22.505Z,8.82
2022-10-11T03:19:22.981Z,9.43
2022-10-11T03:21:51.302Z,11.20
2022-10-11T03:24:22.354Z,10.30
2022-10-11T03:26:50.660Z,10.43
2022-10-11T03:29:21.806Z,9.63
2022-10-11T03:35:21.862Z,8.65
2022-10-11T03:37:51.082Z,10.98
2022-10-11T03:40:25.516Z,10.55
2022-10-11T03:43:20.044Z,11.60
2022-10-11T03:49:19.761Z,7.40
2022-10-11T03:52:18.943Z,8.95
2022-10-11T03:55:19.376Z,10.13
2022-10-11T03:58:18.674Z,8.85
2022-10-11T04:03:50.180Z,10.02
2022-10-11T04:06:19.209Z,11.55
2022-10-11T04:14:50.040Z,13.18
2022-10-11T04:17:18.762Z,10.77
2022-10-11T04:22:47.849Z,9.70
2022-10-11T04:25:19.183Z,8.75
2022-10-11T04:27:47.448Z,8.93
2022-10-11T04:30:19.106Z,10.52
2022-10-11T04:32:47.327Z,11.00
2022-10-11T04:35:18.750Z,9.68
2022-10-11T04:37:47.086Z,10.00
2022-10-11T04:40:19.023Z,7.40
2022-10-11T04:42:47.952Z,9.98
2022-10-11T04:47:46.965Z,9.52
2022-10-11T04:52:45.978Z,8.80
2022-10-11T04:55:17.278Z,9.25
2022-10-11T05:00:15.928Z,8.88
2022-10-11T05:02:44.108Z,9.43
2022-10-11T05:05:18.369Z,9.65
2022-10-11T05:07:46.633Z,8.23
2022-10-11T05:10:15.486Z,8.15
2022-10-11T05:12:46.604Z,10.45
2022-10-11T05:15:14.942Z,9.75
2022-10-11T05:17:46.305Z,8.57
2022-10-11T05:20:14.723Z,8.43
2022-10-11T05:22:44.240Z,7.40
2022-10-11T05:25:15.323Z,9.05
2022-10-11T05:43:45.463Z,8.18
2022-10-11T05:49:42.579Z,7.32
2022-10-11T05:58:43.546Z,7.68
2022-10-11T06:03:45.765Z,6.90
2022-10-11T06:06:41.179Z,8.50
2022-10-11T06:12:10.270Z,9.40
2022-10-11T06:14:41.618Z,8.95
2022-10-11T06:19:42.774Z,6.82
2022-10-11T06:28:41.247Z,12.25
2022-10-11T06:31:12.983Z,8.30
2022-10-11T06:33:41.876Z,6.93
2022-10-11T06:36:14.018Z,5.78
2022-10-11T06:38:44.917Z,7.28
2022-10-11T06:44:13.917Z,7.57
2022-10-11T06:46:42.845Z,7.30
2022-10-11T06:49:11.118Z,6.82
2022-10-11T06:51:39.294Z,7.95
2022-10-11T06:54:10.785Z,9.18
2022-10-11T06:56:39.084Z,7.40
2022-10-11T06:59:10.409Z,7.32
2022-10-11T07:14:41.479Z,5.90
2022-10-11T07:17:09.809Z,8.65
2022-10-11T07:23:07.146Z,5.43
2022-10-11T07:25:37.381Z,5.43
2022-10-11T07:28:06.381Z,5.45
2022-10-11T07:31:06.336Z,5.43
2022-10-11T07:36:37.564Z,5.38
2022-10-11T07:39:08.083Z,6.97
2022-10-11T07:47:36.457Z,5.18
2022-10-11T07:53:06.990Z,4.88
2022-10-11T07:56:06.703Z,7.53
2022-10-11T07:58:35.239Z,4.97
2022-10-11T08:01:05.414Z,6.05
2022-10-11T08:07:11.647Z,5.45
2022-10-11T08:09:39.903Z,5.97
2022-10-11T08:12:08.191Z,7.32
2022-10-11T08:14:36.393Z,6.18
2022-10-11T08:17:04.615Z,6.13
2022-10-11T08:19:32.966Z,5.07
2022-10-11T08:22:04.048Z,4.30
2022-10-11T08:24:35.977Z,5.68
2022-10-11T08:27:06.458Z,4.78
2022-10-11T08:29:35.077Z,6.63
2022-10-11T08:32:03.295Z,6.22
2022-10-11T08:34:34.660Z,5.28
2022-10-11T08:40:04.142Z,6.90
2022-10-11T08:45:12.345Z,6.85
2022-10-11T08:48:30.660Z,6.10
2022-10-11T08:51:04.383Z,6.03
2022-10-11T08:53:45.701Z,7.05
2022-10-11T08:56:16.199Z,6.40
2022-10-11T08:59:10.338Z,5.10
2022-10-11T09:02:00.933Z,4.93
2022-10-11T09:04:33.212Z,5.43
2022-10-11T09:07:59.650Z,5.78
2022-10-11T09:11:04.896Z,5.45
2022-10-11T09:14:29.508Z,5.60
2022-10-11T09:26:44.925Z,4.45
2022-10-11T09:29:34.781Z,5.05
2022-10-11T09:32:33.265Z,4.38
2022-10-11T09:35:29.545Z,6.20
2022-10-11T09:45:00.953Z,4.38
2022-10-11T09:47:57.482Z,4.43
2022-10-11T09:50:31.484Z,4.28
2022-10-11T09:53:27.114Z,5.63
2022-10-11T09:56:05.342Z,4.93
2022-10-11T10:01:30.176Z,4.80
2022-10-11T10:04:26.287Z,4.25
2022-10-11T10:07:11.893Z,4.95
2022-10-11T10:15:25.336Z,5.80
2022-10-11T10:17:56.528Z,7.63
2022-10-11T10:20:32.690Z,10.05
2022-10-11T10:23:34.112Z,11.10
2022-10-11T10:26:27.877Z,10.38
2022-10-11T10:29:27.734Z,9.25
2022-10-11T10:32:14.744Z,12.38
2022-10-11T10:37:55.178Z,7.85
2022-10-11T10:40:54.864Z,10.38
2022-10-11T10:43:54.960Z,11.73
2022-10-11T10:47:21.966Z,11.32
2022-10-11T10:49:55.608Z,11.52
2022-10-11T10:55:51.632Z,13.98
2022-10-11T10:58:54.551Z,11.23
2022-10-11T11:01:51.506Z,10.60
2022-10-11T11:04:56.517Z,9.93
2022-10-11T11:08:21.359Z,9.63
2022-10-11T11:11:51.003Z,10.15
2022-10-11T11:14:51.076Z,9.32
2022-10-11T11:17:51.623Z,9.35
2022-10-11T11:20:57.567Z,7.30
2022-10-11T11:24:02.926Z,5.38
2022-10-11T11:27:49.630Z,4.80
2022-10-11T11:33:51.536Z,6.22
2022-10-11T11:36:50.171Z,6.72
2022-10-11T11:39:48.194Z,5.97
2022-10-11T11:42:32.159Z,7.30
2022-10-11T11:45:20.676Z,6.63
2022-10-11T11:48:01.923Z,5.75
2022-10-11T11:51:17.644Z,6.60
2022-10-11T11:58:24.305Z,7.80
2022-10-11T12:01:45.592Z,9.65
2022-10-11T12:04:35.744Z,10.57
2022-10-11T12:10:20.341Z,7.93
2022-10-11T12:13:18.830Z,7.95
2022-10-11T12:16:17.580Z,11.82
2022-10-11T12:22:59.841Z,7.85
2022-10-11T12:26:47.209Z,8.68
2022-10-11T12:33:55.160Z,8.55
2022-10-11T12:44:50.538Z,8.93
2022-10-11T12:48:19.488Z,9.45
2022-10-11T12:51:24.391Z,8.57
2022-10-11T12:54:27.269Z,7.18
2022-10-11T12:57:15.664Z,7.53
2022-10-11T12:59:46.558Z,6.55
2022-10-11T13:02:45.761Z,6.65
2022-10-11T13:05:44.973Z,7.10
2022-10-11T13:08:23.827Z,6.50
2022-10-11T13:14:39.040Z,6.78
2022-10-11T13:17:39.816Z,6.80
2022-10-11T13:20:22.435Z,5.83
2022-10-11T13:22:59.062Z,5.85
2022-10-11T13:25:41.283Z,6.97
2022-10-11T13:28:10.849Z,4.90
2022-10-11T13:30:45.224Z,4.88
2022-10-11T13:33:21.934Z,6.85
2022-10-11T13:35:51.045Z,4.90
2022-10-11T13:38:31.563Z,6.18
2022-10-11T13:41:08.775Z,5.47
2022-10-11T13:43:38.306Z,4.60
2022-10-11T13:46:07.691Z,6.15
2022-10-11T13:48:42.000Z,5.75
2022-10-11T13:51:18.199Z,5.90
2022-10-11T13:54:13.768Z,6.97
2022-10-11T13:56:50.320Z,6.13
2022-10-11T13:59:31.921Z,5.32
2022-10-11T14:02:05.621Z,7.60
2022-10-11T14:16:39.178Z,7.18
2022-10-11T14:19:50.394Z,5.05
2022-10-11T14:27:10.058Z,6.17
2022-10-11T14:30:25.200Z,6.22
2022-10-11T14:37:14.947Z,5.82
2022-10-11T14:49:48.864Z,5.20
2022-10-11T14:51:12.051Z,7.05
2022-10-11T15:04:04.652Z,6.72
2022-10-11T15:10:14.806Z,6.38
2022-10-11T15:13:08.110Z,8.30
2022-10-11T15:15:40.985Z,6.20
2022-10-11T15:18:13.297Z,7.22
2022-10-11T15:20:48.072Z,9.93
2022-10-11T15:23:35.470Z,7.63
2022-10-11T15:30:04.635Z,6.15
2022-10-11T15:35:34.547Z,6.28
2022-10-11T15:41:02.682Z,7.28
2022-10-11T15:43:33.943Z,6.32
2022-10-11T15:46:04.295Z,7.13
2022-10-11T15:48:33.895Z,7.13
2022-10-11T15:51:02.297Z,6.38
2022-10-11T15:53:32.320Z,6.68
2022-10-11T15:56:33.780Z,6.63
2022-10-11T16:02:34.124Z,6.03
2022-10-11T16:05:32.058Z,6.93
2022-10-11T16:08:01.073Z,6.47
2022-10-11T16:10:32.612Z,6.20
2022-10-11T16:13:00.928Z,6.30
2022-10-11T16:15:29.632Z,7.50
2022-10-11T16:18:00.685Z,8.45
2022-10-11T16:20:29.240Z,8.50
2022-10-11T16:22:58.300Z,7.88
2022-10-11T16:25:26.758Z,7.72
2022-10-11T16:27:55.287Z,8.70
2022-10-11T16:31:11.979Z,13.40
2022-10-11T16:34:06.609Z,11.45
2022-10-11T16:37:01.773Z,15.15
2022-10-11T16:39:59.932Z,17.55
2022-10-11T16:43:25.617Z,17.13
2022-10-11T16:46:02.921Z,13.18
2022-10-11T16:48:59.209Z,17.55
2022-10-11T16:51:28.222Z,16.88
2022-10-11T16:54:04.873Z,17.90
2022-10-11T16:56:58.431Z,16.10
2022-10-11T16:59:27.003Z,13.75
2022-10-11T17:02:01.086Z,17.50
2022-10-11T17:04:31.752Z,16.15
2022-10-11T17:07:00.431Z,17.65
2022-10-11T17:09:28.713Z,16.73
2022-10-11T17:11:56.951Z,16.85
2022-10-11T17:14:25.212Z,16.52
2022-10-11T17:16:53.943Z,18.45
2022-10-11T17:19:25.486Z,17.27
2022-10-11T17:21:53.725Z,20.08
2022-10-11T17:24:22.063Z,20.17
2022-10-11T17:26:52.834Z,21.58
2022-10-11T17:29:22.084Z,19.13
2022-10-11T17:31:50.447Z,20.27
2022-10-11T17:34:19.421Z,18.75
2022-10-11T17:36:50.829Z,22.90
2022-10-11T17:39:21.873Z,20.05
2022-10-11T17:41:52.908Z,18.50
2022-10-11T17:44:24.625Z,18.30
2022-10-11T17:46:52.925Z,22.25
2022-10-11T17:49:24.367Z,17.63
2022-10-11T17:54:50.234Z,18.70
2022-10-11T17:57:26.009Z,23.25
2022-10-11T18:00:11.969Z,18.27
2022-10-11T18:03:21.280Z,20.30
2022-10-11T18:05:52.915Z,20.42
2022-10-11T18:08:24.119Z,20.52
2022-10-11T18:13:21.014Z,16.55
2022-10-11T18:15:53.682Z,17.02
2022-10-11T18:18:22.288Z,18.70
2022-10-11T18:20:51.525Z,19.52
2022-10-11T18:23:20.654Z,16.88
2022-10-11T18:25:52.473Z,19.75
2022-10-11T18:28:20.716Z,17.25
2022-10-11T18:30:51.443Z,18.20
2022-10-11T18:33:19.759Z,19.90
2022-10-11T18:35:51.095Z,16.20
2022-10-11T18:38:19.975Z,15.70
2022-10-11T18:40:49.303Z,19.65
2022-10-11T18:43:20.675Z,16.27
2022-10-11T18:45:51.208Z,13.63
2022-10-11T18:48:19.558Z,16.13
2022-10-11T18:50:51.100Z,17.00
2022-10-11T18:53:19.266Z,15.30
2022-10-11T18:55:48.471Z,14.95
2022-10-11T18:58:25.950Z,15.93
2022-10-11T19:00:54.265Z,16.02
2022-10-11T19:06:19.400Z,15.98
2022-10-11T19:08:52.718Z,15.38
2022-10-11T19:11:29.491Z,20.33
2022-10-11T19:14:03.229Z,12.07
2022-10-11T19:16:34.993Z,16.52
2022-10-11T19:19:03.538Z,16.45
2022-10-11T19:21:32.183Z,17.30
2022-10-11T19:24:09.859Z,16.60
2022-10-11T19:26:44.419Z,15.80
2022-10-11T19:29:21.694Z,14.63
2022-10-11T19:31:53.206Z,12.43
2022-10-11T19:34:23.470Z,18.50
2022-10-11T19:36:53.639Z,16.30
2022-10-11T19:39:23.645Z,16.10
2022-10-11T19:41:54.335Z,16.00
2022-10-11T19:44:28.857Z,19.52
2022-10-11T19:47:04.950Z,13.10
2022-10-11T19:49:43.669Z,15.45
2022-10-11T19:52:17.581Z,16.55
2022-10-11T19:54:48.627Z,15.15
2022-10-11T19:57:16.921Z,17.48
2022-10-11T19:59:46.532Z,13.70
2022-10-11T20:02:16.040Z,17.15
2022-10-11T20:04:52.371Z,12.30
2022-10-11T20:07:26.109Z,17.33
2022-10-11T20:09:54.353Z,14.30
2022-10-11T20:12:35.279Z,15.70
2022-10-11T20:15:17.566Z,13.93
2022-10-11T20:17:52.707Z,14.38
2022-10-11T20:20:30.492Z,15.40
2022-10-11T20:22:59.403Z,12.95
2022-10-11T20:25:28.348Z,15.55
2022-10-11T20:27:56.840Z,15.20
2022-10-11T20:30:44.398Z,18.17
2022-10-11T20:33:15.586Z,13.23
2022-10-11T20:35:44.024Z,16.45
2022-10-11T20:38:15.317Z,15.00
2022-10-11T20:40:43.580Z,12.82
2022-10-11T20:43:14.707Z,17.40
2022-10-11T20:45:43.387Z,14.40
2022-10-11T20:48:11.998Z,16.83
2022-10-11T20:50:46.573Z,13.18
2022-10-11T20:53:16.445Z,13.23
2022-10-11T20:56:14.996Z,13.50
2022-10-11T20:58:55.664Z,13.65
2022-10-11T21:01:48.963Z,14.60
2022-10-11T21:04:32.921Z,14.98
2022-10-11T21:10:06.768Z,17.30
2022-10-11T21:13:11.909Z,14.43
2022-10-11T21:16:13.617Z,13.50
2022-10-11T21:18:42.130Z,13.07
2022-10-11T21:25:11.684Z,13.63
2022-10-11T21:28:10.981Z,14.02
2022-10-11T21:33:33.043Z,12.80
2022-10-11T21:36:18.196Z,11.77
2022-10-11T21:44:39.906Z,15.27
2022-10-11T21:47:11.819Z,12.18
2022-10-11T21:50:14.159Z,15.13
2022-10-11T21:52:42.486Z,13.80
2022-10-11T21:55:17.213Z,11.98
2022-10-11T21:58:14.779Z,13.68
2022-10-11T22:01:18.038Z,14.02
2022-10-11T22:04:36.440Z,15.50
2022-10-11T22:07:22.264Z,11.90
2022-10-11T22:10:14.225Z,14.10
2022-10-11T22:12:42.590Z,13.10
2022-10-11T22:15:11.352Z,14.02
2022-10-11T22:17:42.538Z,12.68
2022-10-11T22:20:11.545Z,15.10
2022-10-11T22:23:21.686Z,11.90
2022-10-11T22:26:16.231Z,11.82
2022-10-11T22:39:41.305Z,13.75
2022-10-11T23:32:06.692Z,11.00
2022-10-11T23:35:06.157Z,14.90
2022-10-11T23:38:17.440Z,15.18
2022-10-11T23:40:52.011Z,13.80
2022-10-11T23:43:35.736Z,14.15
2022-10-11T23:46:06.734Z,12.80
2022-10-11T23:53:02.141Z,15.52
